sensor_id;sensor_type;location;lat;lon;timestamp;P1;durP1;ratioP1;P2;durP2;ratioP2
76593;SDS011;65482;50.240;14.302;2023-04-01T00:01:05;1.58;;;1.00;;
76593;SDS011;65482;50.240;14.302;2023-04-01T00:03:32;3.63;;;1.10;;
76593;SDS011;65482;50.240;14.302;2023-04-01T00:05:58;2.10;;;1.00;;
76593;SDS011;65482;50.240;14.302;2023-04-01T00:08:25;2.83;;;1.10;;
76593;SDS011;65482;50.240;14.302;2023-04-01T00:10:51;3.30;;;1.10;;
76593;SDS011;65482;50.240;14.302;2023-04-01T00:13:18;2.83;;;1.08;;
76593;SDS011;65482;50.240;14.302;2023-04-01T00:15:45;1.75;;;0.93;;
76593;SDS011;65482;50.240;14.302;2023-04-01T00:18:11;4.03;;;1.02;;
76593;SDS011;65482;50.240;14.302;2023-04-01T00:20:37;2.88;;;1.20;;
76593;SDS011;65482;50.240;14.302;2023-04-01T00:23:03;3.35;;;0.90;;
76593;SDS011;65482;50.240;14.302;2023-04-01T00:25:30;1.83;;;0.90;;
76593;SDS011;65482;50.240;14.302;2023-04-01T00:27:56;2.75;;;1.20;;
76593;SDS011;65482;50.240;14.302;2023-04-01T00:30:22;2.63;;;1.20;;
76593;SDS011;65482;50.240;14.302;2023-04-01T00:32:51;2.20;;;0.90;;
76593;SDS011;65482;50.240;14.302;2023-04-01T00:35:17;3.13;;;1.05;;
76593;SDS011;65482;50.240;14.302;2023-04-01T00:37:43;1.60;;;0.90;;
76593;SDS011;65482;50.240;14.302;2023-04-01T00:40:11;2.15;;;0.80;;
76593;SDS011;65482;50.240;14.302;2023-04-01T00:42:53;5.65;;;1.10;;
76593;SDS011;65482;50.240;14.302;2023-04-01T00:47:56;5.20;;;1.27;;
76593;SDS011;65482;50.240;14.302;2023-04-01T00:50:25;4.63;;;0.98;;
76593;SDS011;65482;50.240;14.302;2023-04-01T00:52:54;1.83;;;0.80;;
76593;SDS011;65482;50.240;14.302;2023-04-01T00:55:20;2.88;;;1.10;;
76593;SDS011;65482;50.240;14.302;2023-04-01T00:57:48;2.25;;;0.73;;
76593;SDS011;65482;50.240;14.302;2023-04-01T01:00:15;2.72;;;1.10;;
76593;SDS011;65482;50.240;14.302;2023-04-01T01:02:43;1.40;;;1.00;;
76593;SDS011;65482;50.240;14.302;2023-04-01T01:05:14;2.03;;;1.10;;
76593;SDS011;65482;50.240;14.302;2023-04-01T01:07:51;4.25;;;0.98;;
76593;SDS011;65482;50.240;14.302;2023-04-01T01:10:29;3.00;;;1.20;;
76593;SDS011;65482;50.240;14.302;2023-04-01T01:13:17;3.22;;;0.80;;
76593;SDS011;65482;50.240;14.302;2023-04-01T01:16:00;2.00;;;0.73;;
76593;SDS011;65482;50.240;14.302;2023-04-01T01:18:38;2.67;;;0.95;;
76593;SDS011;65482;50.240;14.302;2023-04-01T01:35:19;1.33;;;0.90;;
76593;SDS011;65482;50.240;14.302;2023-04-01T01:37:50;4.13;;;0.80;;
76593;SDS011;65482;50.240;14.302;2023-04-01T01:40:20;2.83;;;0.80;;
76593;SDS011;65482;50.240;14.302;2023-04-01T01:42:47;2.90;;;0.95;;
76593;SDS011;65482;50.240;14.302;2023-04-01T01:45:19;2.53;;;0.90;;
76593;SDS011;65482;50.240;14.302;2023-04-01T01:47:47;1.52;;;0.80;;
76593;SDS011;65482;50.240;14.302;2023-04-01T01:50:17;1.60;;;0.70;;
76593;SDS011;65482;50.240;14.302;2023-04-01T01:52:44;3.28;;;1.02;;
76593;SDS011;65482;50.240;14.302;2023-04-01T02:00:44;2.88;;;0.90;;
76593;SDS011;65482;50.240;14.302;2023-04-01T02:03:16;1.63;;;0.95;;
76593;SDS011;65482;50.240;14.302;2023-04-01T02:05:45;1.98;;;0.90;;
76593;SDS011;65482;50.240;14.302;2023-04-01T02:08:12;1.70;;;0.73;;
76593;SDS011;65482;50.240;14.302;2023-04-01T02:10:49;2.05;;;0.80;;
76593;SDS011;65482;50.240;14.302;2023-04-01T02:13:29;2.90;;;1.00;;
76593;SDS011;65482;50.240;14.302;2023-04-01T02:16:00;4.22;;;0.90;;
76593;SDS011;65482;50.240;14.302;2023-04-01T02:18:29;5.00;;;0.80;;
76593;SDS011;65482;50.240;14.302;2023-04-01T02:20:59;2.60;;;1.02;;
76593;SDS011;65482;50.240;14.302;2023-04-01T02:23:26;2.72;;;0.80;;
76593;SDS011;65482;50.240;14.302;2023-04-01T02:25:54;2.85;;;0.90;;
76593;SDS011;65482;50.240;14.302;2023-04-01T02:28:20;1.77;;;0.65;;
76593;SDS011;65482;50.240;14.302;2023-04-01T02:30:48;3.47;;;0.98;;
76593;SDS011;65482;50.240;14.302;2023-04-01T02:33:16;2.35;;;0.90;;
76593;SDS011;65482;50.240;14.302;2023-04-01T02:35:44;2.45;;;0.95;;
76593;SDS011;65482;50.240;14.302;2023-04-01T02:38:10;2.88;;;0.80;;
76593;SDS011;65482;50.240;14.302;2023-04-01T02:40:47;3.28;;;0.88;;
76593;SDS011;65482;50.240;14.302;2023-04-01T02:43:14;3.40;;;0.80;;
76593;SDS011;65482;50.240;14.302;2023-04-01T02:45:42;0.82;;;0.70;;
76593;SDS011;65482;50.240;14.302;2023-04-01T02:48:08;1.63;;;0.95;;
76593;SDS011;65482;50.240;14.302;2023-04-01T02:50:35;3.05;;;1.38;;
76593;SDS011;65482;50.240;14.302;2023-04-01T02:53:01;3.13;;;0.70;;
76593;SDS011;65482;50.240;14.302;2023-04-01T02:55:29;2.15;;;0.90;;
76593;SDS011;65482;50.240;14.302;2023-04-01T02:57:56;1.60;;;0.68;;
76593;SDS011;65482;50.240;14.302;2023-04-01T03:00:22;3.53;;;1.02;;
76593;SDS011;65482;50.240;14.302;2023-04-01T03:02:48;1.60;;;0.75;;
76593;SDS011;65482;50.240;14.302;2023-04-01T03:05:17;2.65;;;0.70;;
76593;SDS011;65482;50.240;14.302;2023-04-01T03:07:46;1.45;;;0.80;;
76593;SDS011;65482;50.240;14.302;2023-04-01T03:10:13;3.15;;;0.85;;
76593;SDS011;65482;50.240;14.302;2023-04-01T03:12:39;1.92;;;0.70;;
76593;SDS011;65482;50.240;14.302;2023-04-01T03:15:09;4.47;;;0.95;;
76593;SDS011;65482;50.240;14.302;2023-04-01T03:17:36;2.65;;;0.70;;
76593;SDS011;65482;50.240;14.302;2023-04-01T03:20:04;3.05;;;0.80;;
76593;SDS011;65482;50.240;14.302;2023-04-01T03:22:31;3.83;;;1.00;;
76593;SDS011;65482;50.240;14.302;2023-04-01T03:24:59;3.30;;;1.00;;
76593;SDS011;65482;50.240;14.302;2023-04-01T03:27:24;2.75;;;1.20;;
76593;SDS011;65482;50.240;14.302;2023-04-01T03:29:52;2.45;;;0.80;;
76593;SDS011;65482;50.240;14.302;2023-04-01T03:32:18;1.30;;;0.70;;
76593;SDS011;65482;50.240;14.302;2023-04-01T03:34:45;1.58;;;0.80;;
76593;SDS011;65482;50.240;14.302;2023-04-01T03:37:10;2.05;;;0.73;;
76593;SDS011;65482;50.240;14.302;2023-04-01T03:39:37;3.05;;;1.27;;
76593;SDS011;65482;50.240;14.302;2023-04-01T03:42:02;1.85;;;0.85;;
76593;SDS011;65482;50.240;14.302;2023-04-01T03:44:32;4.25;;;0.70;;
76593;SDS011;65482;50.240;14.302;2023-04-01T03:46:59;3.63;;;0.98;;
76593;SDS011;65482;50.240;14.302;2023-04-01T03:49:27;2.17;;;1.00;;
76593;SDS011;65482;50.240;14.302;2023-04-01T03:51:58;3.55;;;1.25;;
76593;SDS011;65482;50.240;14.302;2023-04-01T03:54:27;4.57;;;1.13;;
76593;SDS011;65482;50.240;14.302;2023-04-01T03:56:53;2.17;;;0.90;;
76593;SDS011;65482;50.240;14.302;2023-04-01T03:59:22;3.20;;;1.02;;
76593;SDS011;65482;50.240;14.302;2023-04-01T04:01:47;3.05;;;1.00;;
76593;SDS011;65482;50.240;14.302;2023-04-01T04:04:16;4.70;;;1.00;;
76593;SDS011;65482;50.240;14.302;2023-04-01T04:06:47;3.15;;;1.20;;
76593;SDS011;65482;50.240;14.302;2023-04-01T04:09:18;2.15;;;0.70;;
76593;SDS011;65482;50.240;14.302;2023-04-01T04:11:46;3.80;;;1.10;;
76593;SDS011;65482;50.240;14.302;2023-04-01T04:14:12;2.55;;;1.33;;
76593;SDS011;65482;50.240;14.302;2023-04-01T04:16:38;2.35;;;0.85;;
76593;SDS011;65482;50.240;14.302;2023-04-01T04:19:10;3.95;;;0.93;;
76593;SDS011;65482;50.240;14.302;2023-04-01T04:21:36;2.72;;;0.98;;
76593;SDS011;65482;50.240;14.302;2023-04-01T04:24:03;4.60;;;1.25;;
76593;SDS011;65482;50.240;14.302;2023-04-01T04:26:32;3.90;;;1.05;;
76593;SDS011;65482;50.240;14.302;2023-04-01T04:29:04;4.07;;;1.10;;
76593;SDS011;65482;50.240;14.302;2023-04-01T04:31:36;3.15;;;0.90;;
76593;SDS011;65482;50.240;14.302;2023-04-01T04:34:02;2.45;;;0.90;;
76593;SDS011;65482;50.240;14.302;2023-04-01T04:36:28;3.95;;;1.10;;
76593;SDS011;65482;50.240;14.302;2023-04-01T04:38:57;3.50;;;1.10;;
76593;SDS011;65482;50.240;14.302;2023-04-01T04:41:29;5.47;;;2.25;;
76593;SDS011;65482;50.240;14.302;2023-04-01T04:43:58;6.20;;;1.95;;
76593;SDS011;65482;50.240;14.302;2023-04-01T04:46:24;7.47;;;2.65;;
76593;SDS011;65482;50.240;14.302;2023-04-01T04:48:51;3.78;;;1.92;;
76593;SDS011;65482;50.240;14.302;2023-04-01T04:51:23;5.30;;;2.45;;
76593;SDS011;65482;50.240;14.302;2023-04-01T04:53:52;5.15;;;1.70;;
76593;SDS011;65482;50.240;14.302;2023-04-01T04:56:19;3.78;;;1.42;;
76593;SDS011;65482;50.240;14.302;2023-04-01T04:58:49;3.22;;;1.30;;
76593;SDS011;65482;50.240;14.302;2023-04-01T05:01:15;5.47;;;1.00;;
76593;SDS011;65482;50.240;14.302;2023-04-01T05:03:45;4.85;;;1.30;;
76593;SDS011;65482;50.240;14.302;2023-04-01T05:06:17;4.35;;;1.27;;
76593;SDS011;65482;50.240;14.302;2023-04-01T05:08:44;3.75;;;1.63;;
76593;SDS011;65482;50.240;14.302;2023-04-01T05:11:17;4.32;;;1.10;;
76593;SDS011;65482;50.240;14.302;2023-04-01T05:13:45;2.50;;;1.20;;
76593;SDS011;65482;50.240;14.302;2023-04-01T05:16:17;2.40;;;0.90;;
76593;SDS011;65482;50.240;14.302;2023-04-01T05:18:47;3.78;;;1.30;;
76593;SDS011;65482;50.240;14.302;2023-04-01T05:21:15;3.28;;;1.00;;
76593;SDS011;65482;50.240;14.302;2023-04-01T05:23:45;4.25;;;1.00;;
76593;SDS011;65482;50.240;14.302;2023-04-01T05:26:12;4.40;;;1.10;;
76593;SDS011;65482;50.240;14.302;2023-04-01T05:28:39;1.98;;;0.88;;
76593;SDS011;65482;50.240;14.302;2023-04-01T05:31:06;4.30;;;1.00;;
76593;SDS011;65482;50.240;14.302;2023-04-01T05:33:32;2.38;;;1.00;;
76593;SDS011;65482;50.240;14.302;2023-04-01T05:36:07;3.58;;;1.10;;
76593;SDS011;65482;50.240;14.302;2023-04-01T05:38:35;2.78;;;1.00;;
76593;SDS011;65482;50.240;14.302;2023-04-01T05:41:01;3.20;;;1.00;;
76593;SDS011;65482;50.240;14.302;2023-04-01T05:43:28;3.35;;;0.90;;
76593;SDS011;65482;50.240;14.302;2023-04-01T05:45:55;2.88;;;1.00;;
76593;SDS011;65482;50.240;14.302;2023-04-01T05:48:22;4.10;;;1.00;;
76593;SDS011;65482;50.240;14.302;2023-04-01T05:50:48;6.32;;;1.00;;
76593;SDS011;65482;50.240;14.302;2023-04-01T05:53:18;2.47;;;0.93;;
76593;SDS011;65482;50.240;14.302;2023-04-01T05:55:43;3.10;;;1.08;;
76593;SDS011;65482;50.240;14.302;2023-04-01T05:58:12;3.30;;;1.10;;
76593;SDS011;65482;50.240;14.302;2023-04-01T06:00:41;5.38;;;1.67;;
76593;SDS011;65482;50.240;14.302;2023-04-01T06:03:07;3.17;;;1.20;;
76593;SDS011;65482;50.240;14.302;2023-04-01T06:05:42;4.30;;;1.35;;
76593;SDS011;65482;50.240;14.302;2023-04-01T06:08:13;2.55;;;1.05;;
76593;SDS011;65482;50.240;14.302;2023-04-01T06:16:16;4.80;;;1.30;;
76593;SDS011;65482;50.240;14.302;2023-04-01T06:24:44;4.82;;;1.00;;
76593;SDS011;65482;50.240;14.302;2023-04-01T06:27:21;4.40;;;1.10;;
76593;SDS011;65482;50.240;14.302;2023-04-01T06:38:45;5.93;;;1.90;;
76593;SDS011;65482;50.240;14.302;2023-04-01T06:46:59;3.55;;;1.13;;
76593;SDS011;65482;50.240;14.302;2023-04-01T06:50:12;4.43;;;1.30;;
76593;SDS011;65482;50.240;14.302;2023-04-01T06:53:08;2.70;;;1.15;;
76593;SDS011;65482;50.240;14.302;2023-04-01T06:55:46;5.38;;;1.48;;
76593;SDS011;65482;50.240;14.302;2023-04-01T06:58:20;3.05;;;1.15;;
76593;SDS011;65482;50.240;14.302;2023-04-01T07:00:51;4.82;;;1.35;;
76593;SDS011;65482;50.240;14.302;2023-04-01T07:03:30;6.55;;;1.33;;
76593;SDS011;65482;50.240;14.302;2023-04-01T07:06:23;3.92;;;1.60;;
76593;SDS011;65482;50.240;14.302;2023-04-01T07:08:53;3.35;;;1.25;;
76593;SDS011;65482;50.240;14.302;2023-04-01T07:11:33;2.67;;;1.02;;
76593;SDS011;65482;50.240;14.302;2023-04-01T07:16:41;3.78;;;1.20;;
76593;SDS011;65482;50.240;14.302;2023-04-01T07:19:48;4.22;;;1.70;;
76593;SDS011;65482;50.240;14.302;2023-04-01T07:22:27;3.85;;;1.33;;
76593;SDS011;65482;50.240;14.302;2023-04-01T07:25:01;4.65;;;1.10;;
76593;SDS011;65482;50.240;14.302;2023-04-01T07:27:38;2.40;;;1.00;;
76593;SDS011;65482;50.240;14.302;2023-04-01T07:30:16;5.63;;;1.45;;
76593;SDS011;65482;50.240;14.302;2023-04-01T07:32:54;3.38;;;1.17;;
76593;SDS011;65482;50.240;14.302;2023-04-01T07:35:44;3.92;;;0.98;;
76593;SDS011;65482;50.240;14.302;2023-04-01T07:47:31;2.47;;;1.05;;
76593;SDS011;65482;50.240;14.302;2023-04-01T07:50:21;3.03;;;1.05;;
76593;SDS011;65482;50.240;14.302;2023-04-01T07:53:01;3.58;;;1.52;;
76593;SDS011;65482;50.240;14.302;2023-04-01T08:00:51;2.60;;;1.15;;
76593;SDS011;65482;50.240;14.302;2023-04-01T08:06:29;2.30;;;1.02;;
76593;SDS011;65482;50.240;14.302;2023-04-01T08:09:21;2.95;;;1.02;;
76593;SDS011;65482;50.240;14.302;2023-04-01T08:20:37;4.22;;;1.48;;
76593;SDS011;65482;50.240;14.302;2023-04-01T08:23:15;3.47;;;1.23;;
76593;SDS011;65482;50.240;14.302;2023-04-01T08:25:58;3.00;;;1.00;;
76593;SDS011;65482;50.240;14.302;2023-04-01T08:28:40;4.20;;;1.15;;
76593;SDS011;65482;50.240;14.302;2023-04-01T08:31:25;3.30;;;1.10;;
76593;SDS011;65482;50.240;14.302;2023-04-01T08:33:58;2.58;;;1.10;;
76593;SDS011;65482;50.240;14.302;2023-04-01T08:38:55;2.35;;;0.90;;
76593;SDS011;65482;50.240;14.302;2023-04-01T08:41:33;3.67;;;1.23;;
76593;SDS011;65482;50.240;14.302;2023-04-01T08:58:27;3.10;;;1.00;;
76593;SDS011;65482;50.240;14.302;2023-04-01T09:04:08;2.42;;;1.15;;
76593;SDS011;65482;50.240;14.302;2023-04-01T09:09:58;2.65;;;1.00;;
76593;SDS011;65482;50.240;14.302;2023-04-01T09:26:34;2.55;;;1.05;;
76593;SDS011;65482;50.240;14.302;2023-04-01T09:31:59;2.00;;;0.90;;
76593;SDS011;65482;50.240;14.302;2023-04-01T09:37:51;1.90;;;0.80;;
76593;SDS011;65482;50.240;14.302;2023-04-01T09:52:07;1.67;;;0.80;;
76593;SDS011;65482;50.240;14.302;2023-04-01T09:55:06;1.13;;;0.60;;
76593;SDS011;65482;50.240;14.302;2023-04-01T10:01:20;1.10;;;0.60;;
76593;SDS011;65482;50.240;14.302;2023-04-01T10:07:11;3.00;;;0.88;;
76593;SDS011;65482;50.240;14.302;2023-04-01T10:10:09;4.15;;;0.95;;
76593;SDS011;65482;50.240;14.302;2023-04-01T10:24:12;1.20;;;0.73;;
76593;SDS011;65482;50.240;14.302;2023-04-01T10:50:58;1.98;;;0.80;;
76593;SDS011;65482;50.240;14.302;2023-04-01T10:56:51;11.02;;;1.30;;
76593;SDS011;65482;50.240;14.302;2023-04-01T11:16:21;1.30;;;0.50;;
76593;SDS011;65482;50.240;14.302;2023-04-01T11:19:38;2.38;;;0.80;;
76593;SDS011;65482;50.240;14.302;2023-04-01T11:30:16;3.60;;;1.50;;
76593;SDS011;65482;50.240;14.302;2023-04-01T11:33:02;7.68;;;2.65;;
76593;SDS011;65482;50.240;14.302;2023-04-01T11:35:48;5.13;;;1.23;;
76593;SDS011;65482;50.240;14.302;2023-04-01T11:38:19;3.08;;;1.33;;
76593;SDS011;65482;50.240;14.302;2023-04-01T11:40:58;2.65;;;1.42;;
76593;SDS011;65482;50.240;14.302;2023-04-01T11:43:38;4.32;;;1.63;;
76593;SDS011;65482;50.240;14.302;2023-04-01T11:46:10;7.78;;;2.20;;
76593;SDS011;65482;50.240;14.302;2023-04-01T11:51:31;1.75;;;0.98;;
76593;SDS011;65482;50.240;14.302;2023-04-01T11:54:28;2.47;;;0.80;;
76593;SDS011;65482;50.240;14.302;2023-04-01T12:03:17;1.58;;;0.70;;
76593;SDS011;65482;50.240;14.302;2023-04-01T12:06:16;2.33;;;0.52;;
76593;SDS011;65482;50.240;14.302;2023-04-01T12:09:06;1.15;;;0.63;;
76593;SDS011;65482;50.240;14.302;2023-04-01T12:11:52;2.47;;;0.80;;
76593;SDS011;65482;50.240;14.302;2023-04-01T12:14:45;4.43;;;1.15;;
76593;SDS011;65482;50.240;14.302;2023-04-01T12:17:32;2.28;;;1.10;;
76593;SDS011;65482;50.240;14.302;2023-04-01T12:22:56;2.33;;;1.02;;
76593;SDS011;65482;50.240;14.302;2023-04-01T12:31:34;1.70;;;0.80;;
76593;SDS011;65482;50.240;14.302;2023-04-01T12:42:36;1.63;;;0.80;;
76593;SDS011;65482;50.240;14.302;2023-04-01T12:51:16;2.63;;;0.80;;
76593;SDS011;65482;50.240;14.302;2023-04-01T12:57:12;1.10;;;0.80;;
76593;SDS011;65482;50.240;14.302;2023-04-01T13:05:52;1.45;;;0.80;;
76593;SDS011;65482;50.240;14.302;2023-04-01T13:08:48;2.65;;;1.42;;
76593;SDS011;65482;50.240;14.302;2023-04-01T13:28:07;1.35;;;1.00;;
76593;SDS011;65482;50.240;14.302;2023-04-01T13:30:39;1.95;;;1.20;;
76593;SDS011;65482;50.240;14.302;2023-04-01T13:41:23;1.55;;;1.17;;
76593;SDS011;65482;50.240;14.302;2023-04-01T13:44:11;3.67;;;1.50;;
76593;SDS011;65482;50.240;14.302;2023-04-01T13:46:47;3.97;;;2.33;;
76593;SDS011;65482;50.240;14.302;2023-04-01T14:00:25;3.38;;;1.88;;
76593;SDS011;65482;50.240;14.302;2023-04-01T14:09:11;2.95;;;1.40;;
76593;SDS011;65482;50.240;14.302;2023-04-01T14:21:21;6.90;;;3.90;;
76593;SDS011;65482;50.240;14.302;2023-04-01T14:29:58;2.20;;;1.50;;
76593;SDS011;65482;50.240;14.302;2023-04-01T14:35:30;2.42;;;1.30;;
76593;SDS011;65482;50.240;14.302;2023-04-01T14:41:00;3.88;;;1.10;;
76593;SDS011;65482;50.240;14.302;2023-04-01T14:43:32;3.50;;;0.88;;
76593;SDS011;65482;50.240;14.302;2023-04-01T14:51:41;1.63;;;0.95;;
76593;SDS011;65482;50.240;14.302;2023-04-01T14:54:13;3.28;;;1.08;;
76593;SDS011;65482;50.240;14.302;2023-04-01T14:56:48;2.50;;;0.93;;
76593;SDS011;65482;50.240;14.302;2023-04-01T14:59:28;1.92;;;1.00;;
76593;SDS011;65482;50.240;14.302;2023-04-01T15:02:11;2.75;;;1.10;;
76593;SDS011;65482;50.240;14.302;2023-04-01T15:04:56;1.30;;;1.05;;
76593;SDS011;65482;50.240;14.302;2023-04-01T15:15:56;3.42;;;1.80;;
76593;SDS011;65482;50.240;14.302;2023-04-01T15:29:42;2.20;;;1.20;;
76593;SDS011;65482;50.240;14.302;2023-04-01T15:41:15;0.80;;;0.70;;
76593;SDS011;65482;50.240;14.302;2023-04-01T15:43:55;1.48;;;1.00;;
76593;SDS011;65482;50.240;14.302;2023-04-01T15:49:15;2.45;;;0.90;;
76593;SDS011;65482;50.240;14.302;2023-04-01T16:03:43;3.90;;;1.60;;
76593;SDS011;65482;50.240;14.302;2023-04-01T16:11:35;3.28;;;1.40;;
76593;SDS011;65482;50.240;14.302;2023-04-01T16:19:37;1.73;;;1.10;;
76593;SDS011;65482;50.240;14.302;2023-04-01T16:22:14;2.72;;;1.13;;
76593;SDS011;65482;50.240;14.302;2023-04-01T16:27:50;2.42;;;1.42;;
76593;SDS011;65482;50.240;14.302;2023-04-01T16:30:32;7.28;;;1.70;;
76593;SDS011;65482;50.240;14.302;2023-04-01T16:33:20;2.40;;;1.55;;
76593;SDS011;65482;50.240;14.302;2023-04-01T16:35:56;2.42;;;1.50;;
76593;SDS011;65482;50.240;14.302;2023-04-01T16:44:53;3.57;;;1.70;;
76593;SDS011;65482;50.240;14.302;2023-04-01T16:47:27;6.82;;;2.20;;
76593;SDS011;65482;50.240;14.302;2023-04-01T16:55:40;3.75;;;2.00;;
76593;SDS011;65482;50.240;14.302;2023-04-01T16:58:14;4.55;;;1.90;;
76593;SDS011;65482;50.240;14.302;2023-04-01T17:00:49;3.80;;;1.63;;
76593;SDS011;65482;50.240;14.302;2023-04-01T17:06:17;3.85;;;1.73;;
76593;SDS011;65482;50.240;14.302;2023-04-01T17:11:39;3.80;;;1.73;;
76593;SDS011;65482;50.240;14.302;2023-04-01T17:19:45;5.88;;;2.55;;
76593;SDS011;65482;50.240;14.302;2023-04-01T17:28:03;6.43;;;3.15;;
76593;SDS011;65482;50.240;14.302;2023-04-01T17:31:03;5.15;;;2.83;;
76593;SDS011;65482;50.240;14.302;2023-04-01T17:34:02;7.90;;;3.05;;
76593;SDS011;65482;50.240;14.302;2023-04-01T17:36:38;5.28;;;2.65;;
76593;SDS011;65482;50.240;14.302;2023-04-01T17:39:13;5.57;;;1.80;;
76593;SDS011;65482;50.240;14.302;2023-04-01T17:41:57;3.15;;;2.30;;
76593;SDS011;65482;50.240;14.302;2023-04-01T17:44:40;3.65;;;1.95;;
76593;SDS011;65482;50.240;14.302;2023-04-01T17:47:28;4.57;;;2.25;;
76593;SDS011;65482;50.240;14.302;2023-04-01T17:50:07;3.22;;;1.95;;
76593;SDS011;65482;50.240;14.302;2023-04-01T17:53:11;5.75;;;2.28;;
76593;SDS011;65482;50.240;14.302;2023-04-01T17:55:55;4.10;;;1.90;;
76593;SDS011;65482;50.240;14.302;2023-04-01T18:01:26;2.58;;;1.70;;
76593;SDS011;65482;50.240;14.302;2023-04-01T18:04:15;3.33;;;1.77;;
76593;SDS011;65482;50.240;14.302;2023-04-01T18:15:39;5.35;;;2.80;;
76593;SDS011;65482;50.240;14.302;2023-04-01T18:18:30;7.15;;;3.72;;
76593;SDS011;65482;50.240;14.302;2023-04-01T18:23:36;8.93;;;3.72;;
76593;SDS011;65482;50.240;14.302;2023-04-01T18:31:44;8.13;;;3.20;;
76593;SDS011;65482;50.240;14.302;2023-04-01T18:34:16;5.85;;;2.22;;
76593;SDS011;65482;50.240;14.302;2023-04-01T18:36:56;5.35;;;2.30;;
76593;SDS011;65482;50.240;14.302;2023-04-01T18:39:33;5.35;;;2.05;;
76593;SDS011;65482;50.240;14.302;2023-04-01T18:42:16;4.43;;;2.50;;
76593;SDS011;65482;50.240;14.302;2023-04-01T18:44:56;4.63;;;2.88;;
76593;SDS011;65482;50.240;14.302;2023-04-01T18:50:32;2.92;;;1.70;;
76593;SDS011;65482;50.240;14.302;2023-04-01T18:53:12;4.50;;;2.00;;
76593;SDS011;65482;50.240;14.302;2023-04-01T18:55:52;4.03;;;2.15;;
76593;SDS011;65482;50.240;14.302;2023-04-01T19:04:23;5.63;;;2.83;;
76593;SDS011;65482;50.240;14.302;2023-04-01T19:07:01;6.93;;;3.30;;
76593;SDS011;65482;50.240;14.302;2023-04-01T19:09:48;6.75;;;3.28;;
76593;SDS011;65482;50.240;14.302;2023-04-01T19:20:37;3.38;;;2.05;;
76593;SDS011;65482;50.240;14.302;2023-04-01T19:37:57;7.32;;;3.20;;
76593;SDS011;65482;50.240;14.302;2023-04-01T19:50:14;4.40;;;2.10;;
76593;SDS011;65482;50.240;14.302;2023-04-01T19:52:36;4.50;;;2.38;;
76593;SDS011;65482;50.240;14.302;2023-04-01T20:00:53;4.70;;;2.50;;
76593;SDS011;65482;50.240;14.302;2023-04-01T20:14:47;6.68;;;3.08;;
76593;SDS011;65482;50.240;14.302;2023-04-01T20:20:15;10.65;;;3.70;;
76593;SDS011;65482;50.240;14.302;2023-04-01T20:25:13;6.10;;;3.38;;
76593;SDS011;65482;50.240;14.302;2023-04-01T20:28:00;5.38;;;2.70;;
76593;SDS011;65482;50.240;14.302;2023-04-01T20:30:47;7.70;;;3.33;;
76593;SDS011;65482;50.240;14.302;2023-04-01T20:33:31;7.03;;;2.92;;
76593;SDS011;65482;50.240;14.302;2023-04-01T20:36:14;4.60;;;3.13;;
76593;SDS011;65482;50.240;14.302;2023-04-01T20:56:01;3.50;;;2.10;;
76593;SDS011;65482;50.240;14.302;2023-04-01T21:01:40;6.45;;;2.88;;
76593;SDS011;65482;50.240;14.302;2023-04-01T21:04:27;5.20;;;3.00;;
76593;SDS011;65482;50.240;14.302;2023-04-01T21:15:46;5.25;;;2.72;;
76593;SDS011;65482;50.240;14.302;2023-04-01T21:26:33;6.32;;;2.78;;
76593;SDS011;65482;50.240;14.302;2023-04-01T21:29:50;5.68;;;2.70;;
76593;SDS011;65482;50.240;14.302;2023-04-01T21:35:33;5.47;;;2.80;;
76593;SDS011;65482;50.240;14.302;2023-04-01T21:49:30;5.00;;;3.45;;
76593;SDS011;65482;50.240;14.302;2023-04-01T21:52:23;6.30;;;2.90;;
76593;SDS011;65482;50.240;14.302;2023-04-01T21:58:07;4.00;;;2.67;;
76593;SDS011;65482;50.240;14.302;2023-04-01T22:00:58;4.35;;;2.72;;
76593;SDS011;65482;50.240;14.302;2023-04-01T22:06:42;4.90;;;2.92;;
76593;SDS011;65482;50.240;14.302;2023-04-01T22:09:18;4.63;;;3.00;;
76593;SDS011;65482;50.240;14.302;2023-04-01T22:11:53;4.57;;;3.00;;
76593;SDS011;65482;50.240;14.302;2023-04-01T22:17:15;7.05;;;3.33;;
76593;SDS011;65482;50.240;14.302;2023-04-01T22:22:31;6.75;;;2.80;;
76593;SDS011;65482;50.240;14.302;2023-04-01T22:25:20;5.45;;;3.20;;
76593;SDS011;65482;50.240;14.302;2023-04-01T22:27:58;6.15;;;3.13;;
76593;SDS011;65482;50.240;14.302;2023-04-01T22:30:34;4.65;;;2.88;;
76593;SDS011;65482;50.240;14.302;2023-04-01T22:38:51;6.90;;;4.10;;
76593;SDS011;65482;50.240;14.302;2023-04-01T22:41:41;4.43;;;3.03;;
76593;SDS011;65482;50.240;14.302;2023-04-01T22:47:18;5.68;;;2.63;;
76593;SDS011;65482;50.240;14.302;2023-04-01T23:00:15;4.22;;;2.33;;
76593;SDS011;65482;50.240;14.302;2023-04-01T23:02:59;4.85;;;2.40;;
76593;SDS011;65482;50.240;14.302;2023-04-01T23:05:31;4.40;;;2.30;;
76593;SDS011;65482;50.240;14.302;2023-04-01T23:10:52;3.67;;;2.55;;
76593;SDS011;65482;50.240;14.302;2023-04-01T23:13:56;7.57;;;2.78;;
76593;SDS011;65482;50.240;14.302;2023-04-01T23:16:26;4.80;;;3.13;;
76593;SDS011;65482;50.240;14.302;2023-04-01T23:19:11;6.43;;;3.92;;
76593;SDS011;65482;50.240;14.302;2023-04-01T23:21:48;5.40;;;3.38;;
76593;SDS011;65482;50.240;14.302;2023-04-01T23:26:58;8.15;;;4.05;;
76593;SDS011;65482;50.240;14.302;2023-04-01T23:29:27;8.10;;;4.45;;
76593;SDS011;65482;50.240;14.302;2023-04-01T23:31:57;7.72;;;4.43;;
76593;SDS011;65482;50.240;14.302;2023-04-01T23:34:28;6.00;;;3.92;;
76593;SDS011;65482;50.240;14.302;2023-04-01T23:37:10;6.47;;;3.90;;
76593;SDS011;65482;50.240;14.302;2023-04-01T23:39:38;7.38;;;4.45;;
76593;SDS011;65482;50.240;14.302;2023-04-01T23:44:41;5.78;;;3.63;;
76593;SDS011;65482;50.240;14.302;2023-04-01T23:47:12;6.68;;;3.83;;
76593;SDS011;65482;50.240;14.302;2023-04-01T23:49:43;5.85;;;3.75;;
76593;SDS011;65482;50.240;14.302;2023-04-01T23:52:22;8.50;;;3.90;;
76593;SDS011;65482;50.240;14.302;2023-04-01T23:54:59;4.82;;;3.00;;
76593;SDS011;65482;50.240;14.302;2023-04-01T23:57:30;5.65;;;3.55;;
